createdAt,value
2018-07-25T00:00:01.481Z,75.41
2018-07-25T00:01:10.389Z,74.93
2018-07-25T00:02:19.321Z,75.41
2018-07-25T00:03:27.964Z,75.31
2018-07-25T00:04:36.618Z,75.31
2018-07-25T00:05:45.260Z,75.76
2018-07-25T00:06:53.920Z,75.57
2018-07-25T00:08:02.567Z,75.76
2018-07-25T00:09:11.219Z,75.37
2018-07-25T00:10:19.865Z,75.57
2018-07-25T00:11:28.784Z,76.43
2018-07-25T00:12:37.433Z,76.63
2018-07-25T00:13:46.088Z,76.63
2018-07-25T00:14:54.738Z,76.82
2018-07-25T00:16:03.652Z,76.63
2018-07-25T00:17:12.303Z,76.53
2018-07-25T00:18:20.954Z,76.92
2018-07-25T00:19:29.609Z,77.01
2018-07-25T00:20:38.517Z,76.82
2018-07-25T00:21:47.432Z,77.11
2018-07-25T00:22:56.082Z,77.3
2018-07-25T00:24:04.742Z,77.55
2018-07-25T00:25:13.388Z,77.01
2018-07-25T00:26:22.040Z,77.26
2018-07-25T00:27:30.693Z,77.3
2018-07-25T00:28:39.345Z,77.75
2018-07-25T00:29:47.992Z,77.65
2018-07-25T00:30:56.648Z,77.84
2018-07-25T00:32:05.295Z,78.13
2018-07-25T00:33:13.942Z,77.94
2018-07-25T00:34:22.598Z,77.65
2018-07-25T00:35:31.252Z,78.33
2018-07-25T00:36:39.901Z,78.71
2018-07-25T00:37:48.815Z,78.71
2018-07-25T00:38:57.470Z,78.42
2018-07-25T00:40:06.125Z,79.49
2018-07-25T00:41:15.036Z,79.58
2018-07-25T00:42:23.684Z,79.58
2018-07-25T00:43:32.340Z,79
2018-07-25T00:44:41.247Z,79.44
2018-07-25T00:45:49.902Z,79.16
2018-07-25T00:46:58.811Z,79.93
2018-07-25T00:48:07.462Z,79.83
2018-07-25T00:49:16.113Z,80.31
2018-07-25T00:50:24.765Z,80.41
2018-07-25T00:51:33.418Z,80.79
2018-07-25T00:52:42.063Z,80.69
2018-07-25T00:53:50.716Z,81.85
2018-07-25T00:54:59.362Z,81.47
2018-07-25T00:56:08.020Z,81.57
2018-07-25T00:57:16.667Z,82.34
2018-07-25T00:58:25.316Z,82.34
2018-07-25T00:59:34.491Z,82.05
2018-07-25T01:00:43.152Z,82.34
2018-07-25T01:01:51.796Z,83.11
2018-07-25T01:03:00.710Z,82.72
2018-07-25T01:04:09.620Z,82.68
2018-07-25T01:05:18.538Z,82.97
2018-07-25T01:06:27.189Z,82.87
2018-07-25T01:07:35.841Z,82.87
2018-07-25T01:08:44.494Z,82.87
2018-07-25T01:09:53.149Z,83.55
2018-07-25T01:11:02.054Z,82.87
2018-07-25T01:12:10.708Z,83.55
2018-07-25T01:13:19.352Z,83.16
2018-07-25T01:14:28.013Z,83.26
2018-07-25T01:15:36.654Z,83.26
2018-07-25T01:16:45.569Z,83.74
2018-07-25T01:17:54.480Z,83.74
2018-07-25T01:19:03.138Z,83.64
2018-07-25T01:20:11.779Z,83.84
2018-07-25T01:21:20.430Z,83.94
2018-07-25T01:22:29.077Z,84.52
2018-07-25T01:23:38.002Z,84.61
2018-07-25T01:24:46.649Z,83.64
2018-07-25T01:25:55.295Z,84.12
2018-07-25T01:27:04.209Z,84.52
2018-07-25T01:28:12.866Z,85.19
2018-07-25T01:29:21.529Z,85.57
2018-07-25T01:30:30.174Z,85.57
2018-07-25T01:31:38.831Z,85.09
2018-07-25T01:32:47.741Z,84.8
2018-07-25T01:33:56.400Z,84.99
2018-07-25T01:35:05.046Z,85.38
2018-07-25T01:36:13.965Z,85.57
2018-07-25T01:37:22.871Z,85.86
2018-07-25T01:38:31.531Z,86.05
2018-07-25T01:39:40.180Z,85.96
2018-07-25T01:40:48.827Z,85.57
2018-07-25T01:41:57.739Z,85.57
2018-07-25T01:43:06.662Z,85.86
2018-07-25T01:44:15.317Z,86.44
2018-07-25T01:45:23.967Z,85.47
2018-07-25T01:46:32.620Z,86.15
2018-07-25T01:47:41.259Z,85.86
2018-07-25T01:48:49.912Z,85.57
2018-07-25T01:49:58.557Z,85.67
2018-07-25T01:51:07.216Z,85.57
2018-07-25T01:52:15.867Z,86.15
2018-07-25T01:53:24.788Z,86.44
2018-07-25T01:54:33.702Z,86.35
2018-07-25T01:55:42.363Z,86.3
2018-07-25T01:56:51.003Z,86.21
2018-07-25T01:57:59.653Z,86.59
2018-07-25T01:59:08.303Z,86.4
2018-07-25T02:00:16.959Z,86.78
2018-07-25T02:01:25.670Z,87.17
2018-07-25T02:02:34.257Z,86.59
2018-07-25T02:03:42.902Z,86.98
2018-07-25T02:04:51.549Z,87.17
2018-07-25T02:06:00.211Z,86.59
2018-07-25T02:07:08.858Z,87.17
2018-07-25T02:08:17.865Z,86.88
2018-07-25T02:09:26.411Z,86.88
2018-07-25T02:10:35.067Z,86.78
2018-07-25T02:11:43.714Z,86.98
2018-07-25T02:12:52.636Z,86.88
2018-07-25T02:14:01.284Z,86.59
2018-07-25T02:15:09.936Z,86.59
2018-07-25T02:16:18.583Z,87.07
2018-07-25T02:17:27.503Z,86.98
2018-07-25T02:18:36.149Z,87.07
2018-07-25T02:19:44.805Z,86.88
2018-07-25T02:20:53.455Z,87.46
2018-07-25T02:22:02.107Z,87.55
2018-07-25T02:23:11.026Z,86.98
2018-07-25T02:24:19.678Z,86.98
2018-07-25T02:25:28.327Z,86.98
2018-07-25T02:26:36.975Z,86.59
2018-07-25T02:27:45.889Z,86.4
2018-07-25T02:28:54.531Z,86.88
2018-07-25T02:30:03.182Z,86.98
2018-07-25T02:31:12.100Z,87.17
2018-07-25T02:32:20.755Z,86.98
2018-07-25T02:33:29.403Z,87.17
2018-07-25T02:34:38.055Z,87.55
2018-07-25T02:35:46.712Z,87.26
2018-07-25T02:36:55.628Z,87.46
2018-07-25T02:38:04.279Z,87.32
2018-07-25T02:39:12.933Z,87.36
2018-07-25T02:40:21.578Z,87.36
2018-07-25T02:41:30.227Z,87.07
2018-07-25T02:42:38.882Z,87.26
2018-07-25T02:43:47.546Z,87.99
2018-07-25T02:44:56.927Z,87.8
2018-07-25T02:46:05.573Z,88.09
2018-07-25T02:47:14.493Z,87.99
2018-07-25T02:48:23.149Z,88.09
2018-07-25T02:49:31.800Z,87.9
2018-07-25T02:50:40.446Z,87.8
2018-07-25T02:51:49.368Z,87.8
2018-07-25T02:52:58.018Z,87.51
2018-07-25T02:54:06.675Z,88.09
2018-07-25T02:55:15.935Z,87.7
2018-07-25T02:56:24.848Z,87.9
2018-07-25T02:57:33.502Z,87.41
2018-07-25T02:58:42.155Z,87.9
2018-07-25T02:59:51.072Z,88.18
2018-07-25T03:00:59.715Z,88.38
2018-07-25T03:02:08.367Z,88.28
2018-07-25T03:03:17.550Z,88.95
2018-07-25T03:04:26.527Z,88.47
2018-07-25T03:05:35.445Z,88.76
2018-07-25T03:06:44.099Z,88.71
2018-07-25T03:07:53.021Z,89.1
2018-07-25T03:09:01.710Z,89.01
2018-07-25T03:10:10.969Z,88.91
2018-07-25T03:11:20.290Z,88.91
2018-07-25T03:12:29.207Z,88.91
2018-07-25T03:13:37.856Z,89.29
2018-07-25T03:14:46.518Z,89.01
2018-07-25T03:15:55.169Z,89.68
2018-07-25T03:17:03.828Z,89.1
2018-07-25T03:18:12.491Z,89.29
2018-07-25T03:19:21.658Z,89.49
2018-07-25T03:20:30.325Z,89.1
2018-07-25T03:21:39.238Z,89.2
2018-07-25T03:22:47.890Z,89.1
2018-07-25T03:23:56.534Z,89.1
2018-07-25T03:25:05.188Z,89.1
2018-07-25T03:26:14.108Z,88.91
2018-07-25T03:27:23.024Z,89.2
2018-07-25T03:28:31.671Z,89.49
2018-07-25T03:29:40.586Z,90.26
2018-07-25T03:30:49.235Z,89.87
2018-07-25T03:31:57.905Z,90.06
2018-07-25T03:33:06.822Z,89.39
2018-07-25T03:34:15.469Z,89.78
2018-07-25T03:35:24.116Z,89.58
2018-07-25T03:36:32.760Z,89.87
2018-07-25T03:37:41.412Z,90.16
2018-07-25T03:38:50.069Z,89.78
2018-07-25T03:39:58.981Z,89.29
2018-07-25T03:41:07.888Z,90.35
2018-07-25T03:42:16.532Z,89.78
2018-07-25T03:43:25.181Z,89.97
2018-07-25T03:44:33.827Z,90.26
2018-07-25T03:45:42.475Z,89.87
2018-07-25T03:46:51.128Z,89.97
2018-07-25T03:47:59.776Z,89.92
2018-07-25T03:49:08.429Z,89.68
2018-07-25T03:50:17.080Z,89.73
2018-07-25T03:51:25.732Z,90.45
2018-07-25T03:52:34.381Z,89.73
2018-07-25T03:53:43.031Z,90.26
2018-07-25T03:54:51.681Z,90.12
2018-07-25T03:56:00.325Z,89.83
2018-07-25T03:57:08.980Z,90.21
2018-07-25T03:58:17.895Z,90.59
2018-07-25T03:59:26.547Z,90.21
2018-07-25T04:00:35.192Z,90.83
2018-07-25T04:01:43.840Z,90.55
2018-07-25T04:02:52.490Z,90.79
2018-07-25T04:04:01.145Z,90.79
2018-07-25T04:05:09.784Z,90.41
2018-07-25T04:06:18.435Z,90.83
2018-07-25T04:07:27.083Z,91.03
2018-07-25T04:08:35.741Z,90.59
2018-07-25T04:09:44.390Z,90.5
2018-07-25T04:10:53.036Z,90.5
2018-07-25T04:12:01.681Z,90.73
2018-07-25T04:13:10.597Z,90.64
2018-07-25T04:14:19.516Z,90.73
2018-07-25T04:15:28.159Z,90.5
2018-07-25T04:16:36.823Z,90.41
2018-07-25T04:17:45.460Z,91.08
2018-07-25T04:18:54.116Z,90.98
2018-07-25T04:20:02.761Z,91.17
2018-07-25T04:21:11.414Z,90.59
2018-07-25T04:22:20.054Z,91.17
2018-07-25T04:23:28.713Z,91.08
2018-07-25T04:24:37.995Z,90.89
2018-07-25T04:25:46.798Z,91.75
2018-07-25T04:26:55.437Z,91.66
2018-07-25T04:28:04.088Z,91.17
2018-07-25T04:29:13.002Z,91.46
2018-07-25T04:30:21.651Z,91.46
2018-07-25T04:31:30.298Z,91.75
2018-07-25T04:32:38.940Z,91.66
2018-07-25T04:33:47.595Z,91.46
2018-07-25T04:34:56.237Z,91.56
2018-07-25T04:36:04.893Z,91.66
2018-07-25T04:37:13.797Z,91.66
2018-07-25T04:38:22.448Z,91.46
2018-07-25T04:39:31.093Z,91.85
2018-07-25T04:40:39.752Z,91.17
2018-07-25T04:41:48.653Z,91.75
2018-07-25T04:42:57.307Z,91.85
2018-07-25T04:44:05.953Z,91.66
2018-07-25T04:45:14.617Z,92.23
2018-07-25T04:46:23.365Z,91.56
2018-07-25T04:47:32.371Z,91.56
2018-07-25T04:48:41.011Z,91.46
2018-07-25T04:49:49.657Z,91.66
2018-07-25T04:50:58.315Z,91.7
2018-07-25T04:52:07.222Z,91.56
2018-07-25T04:53:15.879Z,92.18
2018-07-25T04:54:24.519Z,92.33
2018-07-25T04:55:33.177Z,92.18
2018-07-25T04:56:41.821Z,91.6
2018-07-25T04:57:50.474Z,91.6
2018-07-25T04:58:59.111Z,91.7
2018-07-25T05:00:07.767Z,91.7
2018-07-25T05:01:16.417Z,91.7
2018-07-25T05:02:25.066Z,91.13
2018-07-25T05:03:33.991Z,91.6
2018-07-25T05:04:42.638Z,91.51
2018-07-25T05:05:51.286Z,91.6
2018-07-25T05:07:00.227Z,91.89
2018-07-25T05:08:08.853Z,91.13
2018-07-25T05:09:17.500Z,90.93
2018-07-25T05:10:26.145Z,91.7
2018-07-25T05:11:35.056Z,91.22
2018-07-25T05:12:43.709Z,91.8
2018-07-25T05:13:52.352Z,90.83
2018-07-25T05:15:01.265Z,91.03
2018-07-25T05:16:09.913Z,91.13
2018-07-25T05:17:18.567Z,90.78
2018-07-25T05:18:27.215Z,90.97
2018-07-25T05:19:35.865Z,90.88
2018-07-25T05:20:44.512Z,91.27
2018-07-25T05:21:53.165Z,91.07
2018-07-25T05:23:01.812Z,90.69
2018-07-25T05:24:10.773Z,91.27
2018-07-25T05:25:19.414Z,90.88
2018-07-25T05:26:28.323Z,90.78
2018-07-25T05:27:36.976Z,90.88
2018-07-25T05:28:45.628Z,90.2
2018-07-25T05:29:54.538Z,90.59
2018-07-25T05:31:03.187Z,90.59
2018-07-25T05:32:11.846Z,90.73
2018-07-25T05:33:20.496Z,89.96
2018-07-25T05:34:29.409Z,89.77
2018-07-25T05:35:38.055Z,89.96
2018-07-25T05:36:46.713Z,89.86
2018-07-25T05:37:55.362Z,89.86
2018-07-25T05:39:04.016Z,89.96
2018-07-25T05:40:12.664Z,89.19
2018-07-25T05:41:21.581Z,89.09
2018-07-25T05:42:30.230Z,88.81
2018-07-25T05:43:39.151Z,88.85
2018-07-25T05:44:47.801Z,88.51
2018-07-25T05:45:56.447Z,88.46
2018-07-25T05:47:05.097Z,88.42
2018-07-25T05:48:14.012Z,88.08
2018-07-25T05:49:22.671Z,87.7
2018-07-25T05:50:31.660Z,87.88
2018-07-25T05:51:40.305Z,87.7
2018-07-25T05:52:48.954Z,87.3
2018-07-25T05:53:57.608Z,87.12
2018-07-25T05:55:06.252Z,87.21
2018-07-25T05:56:14.904Z,87.21
2018-07-25T05:57:23.554Z,87.16
2018-07-25T05:58:32.471Z,87.16
2018-07-25T05:59:41.119Z,87.06
2018-07-25T06:00:49.771Z,86.58
2018-07-25T06:01:58.413Z,86.39
2018-07-25T06:03:07.083Z,86.39
2018-07-25T06:04:16.186Z,86.1
2018-07-25T06:05:24.754Z,86.19
2018-07-25T06:06:33.672Z,86
2018-07-25T06:07:42.313Z,86.29
2018-07-25T06:08:50.975Z,85.42
2018-07-25T06:09:59.881Z,85.37
2018-07-25T06:11:08.537Z,85.46
2018-07-25T06:12:17.179Z,84.98
2018-07-25T06:13:26.383Z,84.89
2018-07-25T06:14:35.013Z,84.79
2018-07-25T06:15:43.660Z,84.89
2018-07-25T06:16:52.307Z,84.79
2018-07-25T06:18:00.962Z,84.59
2018-07-25T06:19:09.617Z,84.59
2018-07-25T06:20:18.270Z,84.69
2018-07-25T06:21:26.923Z,83.92
2018-07-25T06:22:35.571Z,84.31
2018-07-25T06:23:44.224Z,83.87
2018-07-25T06:24:52.871Z,83.19
2018-07-25T06:26:01.611Z,83.09
2018-07-25T06:27:10.654Z,83.48
2018-07-25T06:28:19.309Z,82.9
2018-07-25T06:29:27.953Z,83.29
2018-07-25T06:30:36.614Z,82.9
2018-07-25T06:31:45.258Z,83.19
2018-07-25T06:32:53.912Z,83.42
2018-07-25T06:34:02.562Z,82.23
2018-07-25T06:35:11.222Z,82.36
2018-07-25T06:36:19.871Z,82.17
2018-07-25T06:37:28.784Z,82.26
2018-07-25T06:38:37.431Z,81.88
2018-07-25T06:39:46.349Z,81.78
2018-07-25T06:40:55.007Z,82.07
2018-07-25T06:42:03.654Z,82.6
2018-07-25T06:43:12.364Z,81.78
2018-07-25T06:44:20.956Z,81.2
2018-07-25T06:45:29.620Z,80.76
2018-07-25T06:46:38.266Z,80.28
2018-07-25T06:47:46.922Z,79.8
2018-07-25T06:48:55.569Z,80.47
2018-07-25T06:50:04.229Z,80.38
2018-07-25T06:51:13.142Z,79.5
2018-07-25T06:52:21.805Z,79.89
2018-07-25T06:53:30.710Z,78.92
2018-07-25T06:54:39.367Z,78.73
2018-07-25T06:55:48.018Z,79.25
2018-07-25T06:56:56.938Z,78.58
2018-07-25T06:58:05.860Z,78.67
2018-07-25T06:59:14.502Z,79.35
2018-07-25T07:00:23.416Z,78.87
2018-07-25T07:01:32.333Z,77.51
2018-07-25T07:02:40.973Z,76.84
2018-07-25T07:03:49.904Z,77.42
2018-07-25T07:04:58.552Z,77.65
2018-07-25T07:06:07.478Z,77.84
2018-07-25T07:07:16.120Z,77.55
2018-07-25T07:08:24.781Z,76.39
2018-07-25T07:09:33.431Z,76.78
2018-07-25T07:10:42.347Z,77.17
2018-07-25T07:11:50.988Z,75.43
2018-07-25T07:12:59.644Z,76.68
2018-07-25T07:14:08.833Z,75.52
2018-07-25T07:15:17.523Z,76.14
2018-07-25T07:16:26.583Z,75.37
2018-07-25T07:17:35.229Z,73.91
2018-07-25T07:18:43.887Z,74.21
2018-07-25T07:19:52.534Z,73.72
2018-07-25T07:21:01.200Z,74.21
2018-07-25T07:22:09.838Z,73.91
2018-07-25T07:23:18.492Z,73.72
2018-07-25T07:24:27.142Z,73.63
2018-07-25T07:25:35.802Z,73.37
2018-07-25T07:26:44.443Z,73.75
2018-07-25T07:27:53.098Z,71.92
2018-07-25T07:29:01.745Z,73.08
2018-07-25T07:30:10.671Z,73.18
2018-07-25T07:31:19.345Z,73.75
2018-07-25T07:32:27.973Z,74.05
2018-07-25T07:33:36.627Z,72.3
2018-07-25T07:34:45.277Z,72.98
2018-07-25T07:35:53.936Z,72.98
2018-07-25T07:37:02.587Z,71.72
2018-07-25T07:38:11.239Z,71.18
2018-07-25T07:39:19.884Z,71.56
2018-07-25T07:40:28.544Z,70.4
2018-07-25T07:41:37.191Z,70.4
2018-07-25T07:42:45.851Z,70.89
2018-07-25T07:43:54.495Z,70.79
2018-07-25T07:45:03.156Z,71.37
2018-07-25T07:46:11.806Z,71.28
2018-07-25T07:47:20.460Z,71.31
2018-07-25T07:48:29.102Z,70.83
2018-07-25T07:49:37.758Z,69.37
2018-07-25T07:50:46.417Z,67.72
2018-07-25T07:51:55.072Z,67.92
2018-07-25T07:53:03.728Z,67.05
2018-07-25T07:54:12.373Z,66.85
2018-07-25T07:55:21.031Z,66.99
2018-07-25T07:56:29.680Z,68.92
2018-07-25T07:57:38.337Z,66.99
2018-07-25T07:58:46.983Z,67.27
2018-07-25T07:59:55.640Z,67.18
2018-07-25T08:01:04.294Z,65.92
2018-07-25T08:02:13.224Z,65.53
2018-07-25T08:03:21.881Z,65.47
2018-07-25T08:04:30.532Z,65.85
2018-07-25T08:05:39.185Z,66.14
2018-07-25T08:06:47.840Z,66.44
2018-07-25T08:07:56.492Z,65.66
2018-07-25T08:09:05.141Z,65.27
2018-07-25T08:10:13.788Z,64.62
2018-07-25T08:11:22.438Z,64.14
2018-07-25T08:12:31.094Z,64.53
2018-07-25T08:13:39.746Z,65.2
2018-07-25T08:14:48.404Z,65.98
2018-07-25T08:15:57.052Z,66.37
2018-07-25T08:17:05.710Z,66.27
2018-07-25T08:18:14.367Z,62.78
2018-07-25T08:19:23.020Z,63.65
2018-07-25T08:20:31.671Z,63.56
2018-07-25T08:21:40.336Z,63.36
2018-07-25T08:22:48.986Z,63.75
2018-07-25T08:23:57.646Z,63.56
2018-07-25T08:25:06.293Z,63.49
2018-07-25T08:26:14.951Z,62.91
2018-07-25T08:27:23.875Z,62.91
2018-07-25T08:28:32.538Z,63.2
2018-07-25T08:29:41.720Z,62.07
2018-07-25T08:30:50.369Z,61.55
2018-07-25T08:31:59.292Z,60.71
2018-07-25T08:33:07.941Z,60.9
2018-07-25T08:34:16.597Z,61
2018-07-25T08:35:25.247Z,59.92
2018-07-25T08:36:33.900Z,59.83
2018-07-25T08:37:42.823Z,59.92
2018-07-25T08:38:51.482Z,59.34
2018-07-25T08:40:00.132Z,59.25
2018-07-25T08:41:08.850Z,59.25
2018-07-25T08:42:17.444Z,59.08
2018-07-25T08:43:26.106Z,59.28
2018-07-25T08:44:34.760Z,59.57
2018-07-25T08:45:43.940Z,58.5
2018-07-25T08:46:52.659Z,59.38
2018-07-25T08:48:01.245Z,58.62
2018-07-25T08:49:09.904Z,57.95
2018-07-25T08:50:18.557Z,57.07
2018-07-25T08:51:27.214Z,56.87
2018-07-25T08:52:35.894Z,56.68
2018-07-25T08:53:44.519Z,56.68
2018-07-25T08:54:53.173Z,56.97
2018-07-25T08:56:01.848Z,57.07
2018-07-25T08:57:11.288Z,56.59
2018-07-25T08:58:19.951Z,57.78
2018-07-25T08:59:28.879Z,56.22
2018-07-25T09:00:37.605Z,56.41
2018-07-25T09:01:46.189Z,56.22
2018-07-25T09:02:54.842Z,56.51
2018-07-25T09:04:03.496Z,56.71
2018-07-25T09:05:12.158Z,57.29
2018-07-25T09:06:21.129Z,55.76
2018-07-25T09:07:30.106Z,55.57
2018-07-25T09:08:38.740Z,55.57
2018-07-25T09:09:47.392Z,54.3
2018-07-25T09:10:56.054Z,54.6
2018-07-25T09:12:04.699Z,54.5
2018-07-25T09:13:13.352Z,54.21
2018-07-25T09:14:22.005Z,54.4
2018-07-25T09:15:30.664Z,53.16
2018-07-25T09:16:39.312Z,52.87
2018-07-25T09:17:47.969Z,52.97
2018-07-25T09:18:56.632Z,52.67
2018-07-25T09:20:05.279Z,52.67
2018-07-25T09:21:13.929Z,51.51
2018-07-25T09:22:22.854Z,51.99
2018-07-25T09:23:31.509Z,52.09
2018-07-25T09:24:40.167Z,51.7
2018-07-25T09:25:48.821Z,51.61
2018-07-25T09:26:57.474Z,53.06
2018-07-25T09:28:06.132Z,51.7
2018-07-25T09:29:14.781Z,51.04
2018-07-25T09:30:23.440Z,52.5
2018-07-25T09:31:32.095Z,51.63
2018-07-25T09:32:40.744Z,51.43
2018-07-25T09:33:49.540Z,51.82
2018-07-25T09:34:58.491Z,51.24
2018-07-25T09:36:07.151Z,51.73
2018-07-25T09:37:16.353Z,51.36
2018-07-25T09:38:25.002Z,50.26
2018-07-25T09:39:33.660Z,50.58
2018-07-25T09:40:42.315Z,50.68
2018-07-25T09:41:50.981Z,50.19
2018-07-25T09:42:59.636Z,50.68
2018-07-25T09:44:08.287Z,50.87
2018-07-25T09:45:16.942Z,51.65
2018-07-25T09:46:25.617Z,50.48
2018-07-25T09:47:34.262Z,50.78
2018-07-25T09:48:42.914Z,50.68
2018-07-25T09:49:51.864Z,50.38
2018-07-25T09:51:00.523Z,50.41
2018-07-25T09:52:09.196Z,49.9
2018-07-25T09:53:17.851Z,49.34
2018-07-25T09:54:26.495Z,48.85
2018-07-25T09:55:35.147Z,48.95
2018-07-25T09:56:43.812Z,49.54
2018-07-25T09:57:52.466Z,49.93
2018-07-25T09:59:01.133Z,49.93
2018-07-25T10:00:09.774Z,50.02
2018-07-25T10:01:18.443Z,48.97
2018-07-25T10:02:27.122Z,48.88
2018-07-25T10:03:35.803Z,48.19
2018-07-25T10:04:44.492Z,48.19
2018-07-25T10:05:53.186Z,47.9
2018-07-25T10:07:02.181Z,47.9
2018-07-25T10:08:10.786Z,47.05
2018-07-25T10:09:19.463Z,47.63
2018-07-25T10:10:28.143Z,47.05
2018-07-25T10:11:36.822Z,47.53
2018-07-25T10:12:45.503Z,47.44
2018-07-25T10:13:54.184Z,47.34
2018-07-25T10:15:02.881Z,47.14
2018-07-25T10:16:11.543Z,46.46
2018-07-25T10:17:20.496Z,47.24
2018-07-25T10:18:29.173Z,47.14
2018-07-25T10:19:37.852Z,48.12
2018-07-25T10:20:46.610Z,48.8
2018-07-25T10:21:55.216Z,48.32
2018-07-25T10:23:04.182Z,47.07
2018-07-25T10:24:13.145Z,47.17
2018-07-25T10:25:21.822Z,48.14
2018-07-25T10:26:30.501Z,47.67
2018-07-25T10:27:39.182Z,47.27
2018-07-25T10:28:48.149Z,46.41
2018-07-25T10:29:57.415Z,45.53
2018-07-25T10:31:06.095Z,45.33
2018-07-25T10:32:14.780Z,45.53
2018-07-25T10:33:23.455Z,45.36
2018-07-25T10:34:32.146Z,44.87
2018-07-25T10:35:41.092Z,45.16
2018-07-25T10:36:50.058Z,44.87
2018-07-25T10:37:58.723Z,44.87
2018-07-25T10:39:07.702Z,43.99
2018-07-25T10:40:16.371Z,43.42
2018-07-25T10:41:25.051Z,43.42
2018-07-25T10:42:33.826Z,42.74
2018-07-25T10:43:42.410Z,42.74
2018-07-25T10:44:51.089Z,42.83
2018-07-25T10:46:00.356Z,43.03
2018-07-25T10:47:09.326Z,44.2
2018-07-25T10:48:18.286Z,44.23
2018-07-25T10:49:27.247Z,43.24
2018-07-25T10:50:36.202Z,43.44
2018-07-25T10:51:44.883Z,42.66
2018-07-25T10:52:53.561Z,42.07
2018-07-25T10:54:02.243Z,41.58
2018-07-25T10:55:10.918Z,41.78
2018-07-25T10:56:19.597Z,42.36
2018-07-25T10:57:28.285Z,43.15
2018-07-25T10:58:36.964Z,42.68
2018-07-25T10:59:45.644Z,41.21
2018-07-25T11:00:54.321Z,41.21
2018-07-25T11:02:03.059Z,41.31
2018-07-25T11:03:11.684Z,41.41
2018-07-25T11:04:20.366Z,41.21
2018-07-25T11:05:29.049Z,41.02
2018-07-25T11:06:38.013Z,40.82
2018-07-25T11:07:46.987Z,40.84
2018-07-25T11:08:55.950Z,39.94
2018-07-25T11:10:04.628Z,39.76
2018-07-25T11:11:13.308Z,39.56
2018-07-25T11:12:21.989Z,39.56
2018-07-25T11:13:30.671Z,39.27
2018-07-25T11:14:39.351Z,39.37
2018-07-25T11:15:48.032Z,39.56
2018-07-25T11:16:56.989Z,39.19
2018-07-25T11:18:05.670Z,38.8
2018-07-25T11:19:14.350Z,39.09
2018-07-25T11:20:23.032Z,39.37
2018-07-25T11:21:31.711Z,39.29
2018-07-25T11:22:40.393Z,39.49
2018-07-25T11:23:49.347Z,39.39
2018-07-25T11:24:58.594Z,39.39
2018-07-25T11:26:07.275Z,38.6
2018-07-25T11:27:15.954Z,39.9
2018-07-25T11:28:24.635Z,38.13
2018-07-25T11:29:33.585Z,38.33
2018-07-25T11:30:42.268Z,39.01
2018-07-25T11:31:51.211Z,37.94
2018-07-25T11:33:00.165Z,38.33
2018-07-25T11:34:08.842Z,38.53
2018-07-25T11:35:17.531Z,38.23
2018-07-25T11:36:26.211Z,36.86
2018-07-25T11:37:35.154Z,37.15
2018-07-25T11:38:43.835Z,37.45
2018-07-25T11:39:52.516Z,37.45
2018-07-25T11:41:01.198Z,37.94
2018-07-25T11:42:09.878Z,36.47
2018-07-25T11:43:18.828Z,36.47
2018-07-25T11:44:27.512Z,36.76
2018-07-25T11:45:36.194Z,36.57
2018-07-25T11:46:45.139Z,37.15
2018-07-25T11:47:53.820Z,37.54
2018-07-25T11:49:02.503Z,38.04
2018-07-25T11:50:11.455Z,38.84
2018-07-25T11:51:20.132Z,36.78
2018-07-25T11:52:28.814Z,35.5
2018-07-25T11:53:37.495Z,34.72
2018-07-25T11:54:46.447Z,34.52
2018-07-25T11:55:55.131Z,34.62
2018-07-25T11:57:03.809Z,33.05
2018-07-25T11:58:12.492Z,33.25
2018-07-25T11:59:21.169Z,33.44
2018-07-25T12:00:29.850Z,32.97
2018-07-25T12:01:38.540Z,32.18
2018-07-25T12:02:47.544Z,31.89
2018-07-25T12:03:56.225Z,31.41
2018-07-25T12:05:04.906Z,31.02
2018-07-25T12:06:13.853Z,31.32
2018-07-25T12:07:22.547Z,31.41
2018-07-25T12:08:31.219Z,31.02
2018-07-25T12:09:39.904Z,31.04
2018-07-25T12:10:48.886Z,31.04
2018-07-25T12:11:57.863Z,31.23
2018-07-25T12:13:06.548Z,31.25
2018-07-25T12:14:15.234Z,31.35
2018-07-25T12:15:23.916Z,30.84
2018-07-25T12:16:32.599Z,31.35
2018-07-25T12:17:41.281Z,31.53
2018-07-25T12:18:49.962Z,31.84
2018-07-25T12:19:58.644Z,31.64
2018-07-25T12:21:07.643Z,31.05
2018-07-25T12:22:16.670Z,30.58
2018-07-25T12:23:25.344Z,29.39
2018-07-25T12:24:34.313Z,29.2
2018-07-25T12:25:42.996Z,29.1
2018-07-25T12:26:51.737Z,29.59
2018-07-25T12:28:00.365Z,29.89
2018-07-25T12:29:09.043Z,29.41
2018-07-25T12:30:17.728Z,29.21
2018-07-25T12:31:26.410Z,30.11
2018-07-25T12:32:35.094Z,28.63
2018-07-25T12:33:43.777Z,28.14
2018-07-25T12:34:52.459Z,28.63
2018-07-25T12:36:01.143Z,28.82
2018-07-25T12:37:09.827Z,30.4
2018-07-25T12:38:18.509Z,30
2018-07-25T12:39:27.191Z,28.42
2018-07-25T12:40:35.872Z,28.63
2018-07-25T12:41:44.642Z,29.21
2018-07-25T12:42:53.253Z,30
2018-07-25T12:44:01.919Z,31.09
2018-07-25T12:45:10.603Z,32.65
2018-07-25T12:46:19.287Z,32.76
2018-07-25T12:47:28.268Z,30.59
2018-07-25T12:48:36.954Z,29.71
2018-07-25T12:49:45.635Z,29.39
2018-07-25T12:50:54.319Z,29.59
2018-07-25T12:52:03.000Z,30.08
2018-07-25T12:53:11.712Z,30.18
2018-07-25T12:54:20.824Z,30.08
2018-07-25T12:55:29.507Z,30.18
2018-07-25T12:56:38.192Z,30.18
2018-07-25T12:57:47.157Z,30.18
2018-07-25T12:58:55.837Z,30.18
2018-07-25T13:00:04.520Z,29.61
2018-07-25T13:01:13.202Z,29.99
2018-07-25T13:02:21.887Z,30.38
2018-07-25T13:03:30.571Z,30.77
2018-07-25T13:04:39.254Z,30.85
2018-07-25T13:05:47.936Z,31.15
2018-07-25T13:06:57.193Z,30.65
2018-07-25T13:08:06.163Z,32.9
2018-07-25T13:09:14.896Z,31.43
2018-07-25T13:10:24.043Z,33.97
2018-07-25T13:11:32.678Z,34.66
2018-07-25T13:12:41.360Z,33.85
2018-07-25T13:13:50.046Z,34.74
2018-07-25T13:14:58.727Z,33.56
2018-07-25T13:16:07.407Z,33.65
2018-07-25T13:17:16.374Z,33.85
2018-07-25T13:18:25.057Z,32.87
2018-07-25T13:19:33.737Z,33.17
2018-07-25T13:20:42.420Z,34.74
2018-07-25T13:21:51.106Z,33.85
2018-07-25T13:22:59.834Z,34.54
2018-07-25T13:24:08.945Z,34.34
2018-07-25T13:25:17.920Z,35.82
2018-07-25T13:26:26.601Z,32.89
2018-07-25T13:27:35.866Z,33.67
2018-07-25T13:28:44.570Z,33.48
2018-07-25T13:29:53.235Z,31.71
2018-07-25T13:31:01.913Z,34.56
2018-07-25T13:32:10.597Z,33.79
2018-07-25T13:33:19.279Z,33.39
2018-07-25T13:34:27.963Z,33.79
2018-07-25T13:35:36.645Z,33.41
2018-07-25T13:36:45.640Z,33.98
2018-07-25T13:37:54.698Z,33.79
2018-07-25T13:39:03.378Z,33.41
2018-07-25T13:40:12.063Z,33.8
2018-07-25T13:41:20.749Z,33.31
2018-07-25T13:42:29.433Z,34.59
2018-07-25T13:43:38.115Z,34.78
2018-07-25T13:44:46.800Z,35.77
2018-07-25T13:45:55.577Z,35.85
2018-07-25T13:47:04.962Z,36.54
2018-07-25T13:48:13.646Z,37.62
2018-07-25T13:49:22.329Z,36.74
2018-07-25T13:50:31.011Z,36.63
2018-07-25T13:51:39.693Z,38.5
2018-07-25T13:52:48.379Z,35.47
2018-07-25T13:53:57.061Z,36.24
2018-07-25T13:55:05.744Z,36.24
2018-07-25T13:56:14.429Z,37.32
2018-07-25T13:57:23.108Z,36.74
2018-07-25T13:58:31.794Z,35.75
2018-07-25T13:59:40.553Z,36.54
2018-07-25T14:00:49.581Z,35.36
2018-07-25T14:01:58.264Z,35.74
2018-07-25T14:03:06.947Z,35.83
2018-07-25T14:04:15.629Z,36.62
2018-07-25T14:05:24.621Z,36.72
2018-07-25T14:06:33.302Z,36.22
2018-07-25T14:07:41.983Z,36.21
2018-07-25T14:08:50.665Z,36.62
2018-07-25T14:09:59.348Z,36.42
2018-07-25T14:11:08.031Z,36.74
2018-07-25T14:12:16.988Z,35.85
2018-07-25T14:13:25.673Z,38.21
2018-07-25T14:14:34.356Z,37.82
2018-07-25T14:15:43.039Z,34.97
2018-07-25T14:16:51.726Z,38.23
2018-07-25T14:18:00.826Z,34.39
2018-07-25T14:19:09.798Z,33.91
2018-07-25T14:20:18.483Z,34.3
2018-07-25T14:21:27.170Z,38.13
2018-07-25T14:22:35.851Z,34.59
2018-07-25T14:23:44.635Z,34.89
2018-07-25T14:24:53.515Z,36.55
2018-07-25T14:26:02.198Z,37.92
2018-07-25T14:27:10.967Z,35.75
2018-07-25T14:28:19.568Z,34.97
2018-07-25T14:29:28.325Z,36.63
2018-07-25T14:30:37.030Z,36.54
2018-07-25T14:31:45.626Z,36.54
2018-07-25T14:32:54.314Z,35.16
2018-07-25T14:34:02.993Z,37.11
2018-07-25T14:35:11.678Z,37.8
2018-07-25T14:36:21.435Z,36.62
2018-07-25T14:37:31.078Z,35.34
2018-07-25T14:38:39.761Z,35.64
2018-07-25T14:39:48.478Z,36.22
2018-07-25T14:40:57.715Z,35.46
2018-07-25T14:42:06.398Z,35.95
2018-07-25T14:43:15.105Z,34.18
2018-07-25T14:44:23.768Z,36.24
2018-07-25T14:45:33.274Z,34.77
2018-07-25T14:46:41.988Z,34.87
2018-07-25T14:47:50.644Z,35.26